createdAt,value
2022-12-11T00:00:12.014Z,5.90
2022-12-11T00:02:44.820Z,5.90
2022-12-11T00:05:18.468Z,5.93
2022-12-11T00:07:51.601Z,5.90
2022-12-11T00:10:24.608Z,5.89
2022-12-11T00:12:57.391Z,5.91
2022-12-11T00:15:30.673Z,5.93
2022-12-11T00:18:03.492Z,5.94
2022-12-11T00:20:36.843Z,5.95
2022-12-11T00:23:11.128Z,5.97
2022-12-11T00:25:46.214Z,5.92
2022-12-11T00:28:22.199Z,5.92
2022-12-11T00:30:55.368Z,5.97
2022-12-11T00:33:29.940Z,5.97
2022-12-11T00:36:02.705Z,5.99
2022-12-11T00:38:35.537Z,6.00
2022-12-11T00:41:09.130Z,6.00
2022-12-11T00:43:42.657Z,5.99
2022-12-11T00:46:15.424Z,5.98
2022-12-11T00:48:50.222Z,5.98
2022-12-11T00:51:22.872Z,6.02
2022-12-11T00:53:55.611Z,6.05
2022-12-11T00:56:28.388Z,6.08
2022-12-11T00:59:01.541Z,6.11
2022-12-11T01:01:34.545Z,6.13
2022-12-11T01:04:07.660Z,6.15
2022-12-11T01:06:41.607Z,6.18
2022-12-11T01:09:31.991Z,6.19
2022-12-11T01:12:05.376Z,6.18
2022-12-11T01:14:38.411Z,6.16
2022-12-11T01:17:11.521Z,6.15
2022-12-11T01:19:44.301Z,6.14
2022-12-11T01:22:16.974Z,6.12
2022-12-11T01:24:50.023Z,6.12
2022-12-11T01:27:23.023Z,6.12
2022-12-11T01:29:56.202Z,6.10
2022-12-11T01:32:30.022Z,6.09
2022-12-11T01:35:05.726Z,6.06
2022-12-11T01:37:38.606Z,6.05
2022-12-11T01:40:15.014Z,6.05
2022-12-11T01:42:48.356Z,6.03
2022-12-11T01:45:39.780Z,6.04
2022-12-11T01:48:17.294Z,6.03
2022-12-11T01:51:02.708Z,6.03
2022-12-11T01:53:44.945Z,6.03
2022-12-11T01:56:18.281Z,6.02
2022-12-11T01:58:55.576Z,6.03
2022-12-11T02:01:35.787Z,6.03
2022-12-11T02:04:11.248Z,6.02
2022-12-11T02:06:47.167Z,6.02
2022-12-11T02:09:23.912Z,6.03
2022-12-11T02:12:28.877Z,6.02
2022-12-11T02:15:21.477Z,6.02
2022-12-11T02:18:28.636Z,6.00
2022-12-11T02:21:21.336Z,5.98
2022-12-11T02:24:16.737Z,5.96
2022-12-11T02:27:06.336Z,5.94
2022-12-11T02:30:04.328Z,5.93
2022-12-11T02:32:47.433Z,5.91
2022-12-11T02:35:29.780Z,5.90
2022-12-11T02:38:06.978Z,5.86
2022-12-11T02:40:42.265Z,5.83
2022-12-11T02:43:16.926Z,5.78
2022-12-11T02:45:50.712Z,5.76
2022-12-11T02:48:25.397Z,5.72
2022-12-11T02:51:00.187Z,5.69
2022-12-11T02:53:36.158Z,5.67
2022-12-11T02:56:16.739Z,5.64
2022-12-11T02:58:58.287Z,5.63
2022-12-11T03:01:29.343Z,5.59
2022-12-11T03:04:02.081Z,5.56
2022-12-11T03:06:49.724Z,5.54
2022-12-11T03:09:22.917Z,5.53
2022-12-11T03:11:55.708Z,5.51
2022-12-11T03:14:28.449Z,5.50
2022-12-11T03:17:17.623Z,5.47
2022-12-11T03:20:10.259Z,5.46
2022-12-11T03:23:02.438Z,5.45
2022-12-11T03:25:44.381Z,5.41
2022-12-11T03:28:33.464Z,5.39
2022-12-11T03:31:11.286Z,5.36
2022-12-11T03:33:46.855Z,5.34
2022-12-11T03:36:23.805Z,5.31
2022-12-11T03:39:09.335Z,5.22
2022-12-11T03:41:42.453Z,5.19
2022-12-11T03:44:16.734Z,5.13
2022-12-11T03:46:50.078Z,5.10
2022-12-11T03:49:29.265Z,5.03
2022-12-11T03:52:03.012Z,4.97
2022-12-11T03:54:37.220Z,4.84
2022-12-11T03:57:12.314Z,4.75
2022-12-11T03:59:45.131Z,4.65
2022-12-11T04:02:18.083Z,4.58
2022-12-11T04:04:51.012Z,4.55
2022-12-11T04:07:24.314Z,4.55
2022-12-11T04:09:57.737Z,4.56
2022-12-11T04:12:30.877Z,4.53
2022-12-11T04:15:03.975Z,4.51
2022-12-11T04:17:56.567Z,4.47
2022-12-11T04:20:47.663Z,4.41
2022-12-11T04:23:39.100Z,4.37
2022-12-11T04:26:18.555Z,4.32
2022-12-11T04:28:52.255Z,4.30
2022-12-11T04:31:25.769Z,4.28
2022-12-11T04:33:58.563Z,4.28
2022-12-11T04:36:31.603Z,4.30
2022-12-11T04:39:06.358Z,4.30
2022-12-11T04:41:39.323Z,4.29
2022-12-11T04:44:12.330Z,4.29
2022-12-11T04:46:45.496Z,4.27
2022-12-11T04:49:18.790Z,4.26
2022-12-11T04:51:51.415Z,4.25
2022-12-11T04:54:25.722Z,4.26
2022-12-11T04:56:59.064Z,4.26
2022-12-11T04:59:32.944Z,4.29
2022-12-11T05:02:06.272Z,4.30
2022-12-11T05:04:39.536Z,4.31
2022-12-11T05:07:13.118Z,4.30
2022-12-11T05:09:46.313Z,4.29
2022-12-11T05:12:19.297Z,4.29
2022-12-11T05:14:55.526Z,4.30
2022-12-11T05:17:28.494Z,4.32
2022-12-11T05:20:01.307Z,4.31
2022-12-11T05:22:34.335Z,4.32
2022-12-11T05:25:09.117Z,4.34
2022-12-11T05:27:42.312Z,4.35
2022-12-11T05:30:15.486Z,4.37
2022-12-11T05:32:48.217Z,4.38
2022-12-11T05:35:21.067Z,4.39
2022-12-11T05:37:54.153Z,4.40
2022-12-11T05:40:27.213Z,4.40
2022-12-11T05:43:00.431Z,4.41
2022-12-11T05:45:33.642Z,4.43
2022-12-11T05:48:07.419Z,4.44
2022-12-11T05:50:40.462Z,4.45
2022-12-11T05:53:13.329Z,4.44
2022-12-11T05:55:46.283Z,4.45
2022-12-11T05:58:19.613Z,4.44
2022-12-11T06:00:52.277Z,4.47
2022-12-11T06:03:25.707Z,4.48
2022-12-11T06:05:58.889Z,4.49
2022-12-11T06:08:32.787Z,4.48
2022-12-11T06:11:07.103Z,4.45
2022-12-11T06:13:40.951Z,4.43
2022-12-11T06:16:14.638Z,4.43
2022-12-11T06:18:48.481Z,4.45
2022-12-11T06:21:27.459Z,4.47
2022-12-11T06:24:03.490Z,4.50
2022-12-11T06:26:36.379Z,4.53
2022-12-11T06:29:12.961Z,4.53
2022-12-11T06:31:43.702Z,4.55
2022-12-11T06:34:16.929Z,4.57
2022-12-11T06:36:49.559Z,4.59
2022-12-11T06:39:22.645Z,4.62
2022-12-11T06:41:55.534Z,4.65
2022-12-11T06:44:28.567Z,4.69
2022-12-11T06:47:01.633Z,4.69
2022-12-11T06:49:34.981Z,4.67
2022-12-11T06:52:09.968Z,4.68
2022-12-11T06:54:43.411Z,4.69
2022-12-11T06:57:16.657Z,4.68
2022-12-11T06:59:49.686Z,4.68
2022-12-11T07:02:23.275Z,4.70
2022-12-11T07:04:56.375Z,4.75
2022-12-11T07:07:29.693Z,4.80
2022-12-11T07:10:07.962Z,4.82
2022-12-11T07:12:37.946Z,4.84
2022-12-11T07:15:12.283Z,4.87
2022-12-11T07:17:45.609Z,4.92
2022-12-11T07:20:19.837Z,4.94
2022-12-11T07:22:53.091Z,4.97
2022-12-11T07:25:26.160Z,5.01
2022-12-11T07:27:59.046Z,5.03
2022-12-11T07:30:32.129Z,5.06
2022-12-11T07:33:06.060Z,5.08
2022-12-11T07:35:39.184Z,5.11
2022-12-11T07:38:12.275Z,5.13
2022-12-11T07:40:45.109Z,5.15
2022-12-11T07:43:17.906Z,5.19
2022-12-11T07:45:51.229Z,5.25
2022-12-11T07:48:24.194Z,5.31
2022-12-11T07:50:57.369Z,5.34
2022-12-11T07:53:30.192Z,5.37
2022-12-11T07:56:03.189Z,5.44
2022-12-11T07:58:37.197Z,5.49
2022-12-11T08:01:16.618Z,5.54
2022-12-11T08:03:50.910Z,5.57
2022-12-11T08:06:30.148Z,5.59
2022-12-11T08:09:05.444Z,5.61
2022-12-11T08:11:38.733Z,5.67
2022-12-11T08:14:11.675Z,5.73
2022-12-11T08:16:45.149Z,5.80
2022-12-11T08:19:18.438Z,5.85
2022-12-11T08:21:51.283Z,5.88
2022-12-11T08:24:24.036Z,5.91
2022-12-11T08:26:57.133Z,6.00
2022-12-11T08:29:30.104Z,6.10
2022-12-11T08:32:06.352Z,6.20
2022-12-11T08:34:37.662Z,6.28
2022-12-11T08:37:10.699Z,6.37
2022-12-11T08:39:45.335Z,6.44
2022-12-11T08:42:18.178Z,6.54
2022-12-11T08:44:52.060Z,6.60
2022-12-11T08:47:27.770Z,6.66
2022-12-11T08:50:00.619Z,6.71
2022-12-11T08:52:37.092Z,6.76
2022-12-11T08:55:10.833Z,6.81
2022-12-11T08:57:43.868Z,6.87
2022-12-11T09:00:18.827Z,6.95
2022-12-11T09:02:51.769Z,6.99
2022-12-11T09:05:24.518Z,7.03
2022-12-11T09:07:57.422Z,7.06
2022-12-11T09:10:30.407Z,7.10
2022-12-11T09:13:04.164Z,7.14
2022-12-11T09:15:39.821Z,7.16
2022-12-11T09:18:12.686Z,7.19
2022-12-11T09:20:45.561Z,7.23
2022-12-11T09:23:18.558Z,7.27
2022-12-11T09:25:51.733Z,7.30
2022-12-11T09:28:25.722Z,7.35
2022-12-11T09:30:58.565Z,7.39
2022-12-11T09:33:31.601Z,7.43
2022-12-11T09:36:05.711Z,7.49
2022-12-11T09:38:39.381Z,7.54
2022-12-11T09:41:25.457Z,7.60
2022-12-11T09:44:42.909Z,7.66
2022-12-11T09:47:33.632Z,7.75
2022-12-11T09:50:12.153Z,7.87
2022-12-11T09:53:15.179Z,7.94
2022-12-11T09:55:58.465Z,8.00
2022-12-11T09:58:58.489Z,8.04
2022-12-11T10:01:39.797Z,8.05
2022-12-11T10:04:20.756Z,8.05
2022-12-11T10:07:17.189Z,8.05
2022-12-11T10:10:20.969Z,8.04
2022-12-11T10:13:32.460Z,8.03
2022-12-11T10:16:29.921Z,8.05
2022-12-11T10:19:03.939Z,8.09
2022-12-11T10:21:41.556Z,8.16
2022-12-11T10:27:29.256Z,8.30
2022-12-11T10:30:16.174Z,8.34
2022-12-11T10:33:24.977Z,8.37
2022-12-11T10:35:59.367Z,8.37
2022-12-11T10:38:35.862Z,8.34
2022-12-11T10:41:15.808Z,8.33
2022-12-11T10:43:52.189Z,8.33
2022-12-11T10:46:28.524Z,8.36
2022-12-11T10:49:02.908Z,8.39
2022-12-11T10:51:38.682Z,8.43
2022-12-11T10:54:19.425Z,8.43
2022-12-11T10:56:52.462Z,8.44
2022-12-11T10:59:35.972Z,8.40
2022-12-11T11:02:24.483Z,8.33
2022-12-11T11:05:01.230Z,8.25
2022-12-11T11:07:35.120Z,8.17
2022-12-11T11:10:16.343Z,8.11
2022-12-11T11:12:53.749Z,8.08
2022-12-11T11:15:31.792Z,8.05
2022-12-11T11:18:12.702Z,8.05
2022-12-11T11:20:49.174Z,8.09
2022-12-11T11:23:23.582Z,8.15
2022-12-11T11:25:57.540Z,8.22
2022-12-11T11:28:46.611Z,8.29
2022-12-11T11:31:21.173Z,8.34
2022-12-11T11:34:04.501Z,8.36
2022-12-11T11:36:38.937Z,8.36
2022-12-11T11:39:21.596Z,8.34
2022-12-11T11:42:13.393Z,8.35
2022-12-11T11:45:03.519Z,8.30
2022-12-11T11:47:43.353Z,8.23
2022-12-11T11:50:30.124Z,8.16
2022-12-11T11:53:35.121Z,8.08
2022-12-11T11:56:36.556Z,8.00
2022-12-11T11:59:25.937Z,7.89
2022-12-11T12:02:00.925Z,7.84
2022-12-11T12:04:37.692Z,7.78
2022-12-11T12:07:52.594Z,7.74
2022-12-11T12:10:58.692Z,7.70
2022-12-11T12:13:53.743Z,7.61
2022-12-11T12:16:55.899Z,7.55
2022-12-11T12:19:19.567Z,7.50
2022-12-11T12:21:55.217Z,7.47
2022-12-11T12:24:48.256Z,7.43
2022-12-11T12:27:51.682Z,7.39
2022-12-11T12:30:17.393Z,7.33
2022-12-11T12:33:33.471Z,7.26
2022-12-11T12:36:25.963Z,7.20
2022-12-11T12:39:42.801Z,7.15
2022-12-11T12:42:49.325Z,7.13
2022-12-11T12:46:06.331Z,7.11
2022-12-11T12:48:40.122Z,7.11
2022-12-11T12:51:16.339Z,7.05
2022-12-11T12:54:01.693Z,7.02
2022-12-11T12:56:36.537Z,7.00
2022-12-11T12:59:24.872Z,6.98
2022-12-11T13:02:01.363Z,6.97
2022-12-11T13:04:55.877Z,6.98
2022-12-11T13:07:23.352Z,6.94
2022-12-11T13:10:24.698Z,6.90
2022-12-11T13:12:58.315Z,6.85
2022-12-11T13:15:40.956Z,6.80
2022-12-11T13:18:35.347Z,6.76
2022-12-11T13:21:36.006Z,6.72
2022-12-11T13:24:25.832Z,6.67
2022-12-11T13:27:00.740Z,6.59
2022-12-11T13:29:44.200Z,6.51
2022-12-11T13:32:25.120Z,6.44
2022-12-11T13:35:00.565Z,6.36
2022-12-11T13:37:42.637Z,6.29
2022-12-11T13:40:22.384Z,6.23
2022-12-11T13:43:01.183Z,6.19
2022-12-11T13:45:55.965Z,6.15
2022-12-11T13:48:49.362Z,6.10
2022-12-11T13:51:26.195Z,6.04
2022-12-11T13:54:18.749Z,6.00
2022-12-11T13:57:01.322Z,5.97
2022-12-11T13:59:39.106Z,5.95
2022-12-11T14:02:25.419Z,5.90
2022-12-11T14:05:08.736Z,5.87
2022-12-11T14:07:46.582Z,5.84
2022-12-11T14:10:29.347Z,5.78
2022-12-11T14:13:05.660Z,5.76
2022-12-11T14:15:39.873Z,5.72
2022-12-11T14:18:23.088Z,5.68
2022-12-11T14:21:01.349Z,5.62
2022-12-11T14:23:37.730Z,5.57
2022-12-11T14:26:27.717Z,5.53
2022-12-11T14:29:01.361Z,5.52
2022-12-11T14:31:38.422Z,5.49
2022-12-11T14:34:26.065Z,5.46
2022-12-11T14:37:00.329Z,5.41
2022-12-11T14:39:39.957Z,5.36
2022-12-11T14:42:28.383Z,5.32
2022-12-11T14:45:24.092Z,5.31
2022-12-11T14:47:57.835Z,5.30
2022-12-11T14:50:38.365Z,5.27
2022-12-11T14:53:15.984Z,5.22
2022-12-11T14:55:50.666Z,5.20
2022-12-11T14:58:29.791Z,5.17
2022-12-11T15:01:06.651Z,5.16
2022-12-11T15:03:43.111Z,5.15
2022-12-11T15:06:33.121Z,5.14
2022-12-11T15:09:41.066Z,5.12
2022-12-11T15:12:20.566Z,5.10
2022-12-11T15:15:02.422Z,5.05
2022-12-11T15:17:37.759Z,5.04
2022-12-11T15:20:14.823Z,5.06
2022-12-11T15:22:47.985Z,5.06
2022-12-11T15:25:29.779Z,5.07
2022-12-11T15:28:03.073Z,5.06
2022-12-11T15:30:37.372Z,5.05
2022-12-11T15:33:20.037Z,5.05
2022-12-11T15:36:08.162Z,5.03
2022-12-11T15:38:42.476Z,5.03
2022-12-11T15:41:20.347Z,5.04
2022-12-11T15:43:58.988Z,5.04
2022-12-11T15:46:31.850Z,5.03
2022-12-11T15:49:07.894Z,5.02
2022-12-11T15:51:43.139Z,5.01
2022-12-11T15:54:15.544Z,5.02
2022-12-11T15:56:48.311Z,5.05
2022-12-11T15:59:21.796Z,5.05
2022-12-11T16:01:55.178Z,5.07
2022-12-11T16:04:27.900Z,5.08
2022-12-11T16:07:03.498Z,5.05
2022-12-11T16:09:38.052Z,5.03
2022-12-11T16:12:12.186Z,5.03
2022-12-11T16:14:46.789Z,5.05
2022-12-11T16:17:20.146Z,5.05
2022-12-11T16:19:55.071Z,5.04
2022-12-11T16:22:28.030Z,5.02
2022-12-11T16:25:00.848Z,5.04
2022-12-11T16:27:34.680Z,5.04
2022-12-11T16:30:10.386Z,5.04
2022-12-11T16:32:43.708Z,5.03
2022-12-11T16:35:17.716Z,5.02
2022-12-11T16:37:57.425Z,5.01
2022-12-11T16:40:30.305Z,4.97
2022-12-11T16:43:04.099Z,4.96
2022-12-11T16:45:36.884Z,4.97
2022-12-11T16:48:10.121Z,4.97
2022-12-11T16:50:43.118Z,5.01
2022-12-11T16:53:17.826Z,5.01
2022-12-11T16:55:50.828Z,5.02
2022-12-11T16:58:24.629Z,5.03
2022-12-11T17:00:58.991Z,5.03
2022-12-11T17:03:33.433Z,5.03
2022-12-11T17:06:07.878Z,5.02
2022-12-11T17:08:44.138Z,5.01
2022-12-11T17:11:21.225Z,5.00
2022-12-11T17:13:58.964Z,4.98
2022-12-11T17:16:33.060Z,5.01
2022-12-11T17:19:07.791Z,5.03
2022-12-11T17:21:40.781Z,5.03
2022-12-11T17:24:13.811Z,5.05
2022-12-11T17:26:46.766Z,5.04
2022-12-11T17:29:20.240Z,5.04
2022-12-11T17:31:53.060Z,5.03
2022-12-11T17:34:25.974Z,5.06
2022-12-11T17:36:58.874Z,5.10
2022-12-11T17:39:32.324Z,5.13
2022-12-11T17:42:05.966Z,5.14
2022-12-11T17:44:40.133Z,5.16
2022-12-11T17:47:13.246Z,5.17
2022-12-11T17:49:46.310Z,5.19
2022-12-11T17:52:19.248Z,5.21
2022-12-11T17:54:53.514Z,5.19
2022-12-11T17:57:26.332Z,5.17
2022-12-11T17:59:59.194Z,5.18
2022-12-11T18:02:33.851Z,5.18
2022-12-11T18:05:07.169Z,5.19
2022-12-11T18:07:40.555Z,5.18
2022-12-11T18:10:13.498Z,5.17
2022-12-11T18:12:47.287Z,5.15
2022-12-11T18:15:21.235Z,5.12
2022-12-11T18:17:53.925Z,5.09
2022-12-11T18:20:27.596Z,5.05
2022-12-11T18:23:02.255Z,5.03
2022-12-11T18:25:36.365Z,5.00
2022-12-11T18:28:09.307Z,4.99
2022-12-11T18:30:42.354Z,5.00
2022-12-11T18:33:15.564Z,5.01
2022-12-11T18:35:50.678Z,5.02
2022-12-11T18:38:24.255Z,5.03
2022-12-11T18:40:57.516Z,5.03
2022-12-11T18:43:30.375Z,5.04
2022-12-11T18:46:09.687Z,5.01
2022-12-11T18:48:44.372Z,4.96
2022-12-11T18:51:18.979Z,4.96
2022-12-11T18:53:51.797Z,4.99
2022-12-11T18:56:24.675Z,4.98
2022-12-11T18:58:57.671Z,4.99
2022-12-11T19:01:33.544Z,4.99
2022-12-11T19:04:10.710Z,5.00
2022-12-11T19:06:41.484Z,5.00
2022-12-11T19:09:14.634Z,5.00
2022-12-11T19:11:47.978Z,5.02
2022-12-11T19:14:21.249Z,5.03
2022-12-11T19:16:54.647Z,5.03
2022-12-11T19:19:27.380Z,5.04
2022-12-11T19:22:00.918Z,5.04
2022-12-11T19:24:33.938Z,5.03
2022-12-11T19:27:13.082Z,5.03
2022-12-11T19:29:41.606Z,5.04
2022-12-11T19:32:14.946Z,5.03
2022-12-11T19:34:48.004Z,5.02
2022-12-11T19:37:21.018Z,5.00
2022-12-11T19:39:54.054Z,5.01
2022-12-11T19:42:29.516Z,5.03
2022-12-11T19:45:04.505Z,5.05
2022-12-11T19:47:37.986Z,5.04
2022-12-11T19:50:11.182Z,5.02
2022-12-11T19:52:46.377Z,4.99
2022-12-11T19:55:19.901Z,4.96
2022-12-11T19:57:53.437Z,4.96
2022-12-11T20:00:26.327Z,4.94
2022-12-11T20:02:59.908Z,4.91
2022-12-11T20:05:33.271Z,4.89
2022-12-11T20:08:42.432Z,4.85
2022-12-11T20:10:41.708Z,4.83
2022-12-11T20:13:15.575Z,4.80
2022-12-11T20:15:48.648Z,4.78
2022-12-11T20:18:21.586Z,4.76
2022-12-11T20:20:55.051Z,4.76
2022-12-11T20:23:28.582Z,4.77
2022-12-11T20:26:03.562Z,4.76
2022-12-11T20:28:36.789Z,4.75
2022-12-11T20:31:19.779Z,4.73
2022-12-11T20:33:52.226Z,4.72
2022-12-11T20:36:26.704Z,4.74
2022-12-11T20:38:59.626Z,4.75
2022-12-11T20:41:32.859Z,4.75
2022-12-11T20:44:06.573Z,4.71
2022-12-11T20:46:41.166Z,4.67
2022-12-11T20:49:14.205Z,4.65
2022-12-11T20:51:47.218Z,4.65
2022-12-11T20:54:20.360Z,4.65
2022-12-11T20:56:53.468Z,4.64
2022-12-11T20:59:27.035Z,4.64
2022-12-11T21:02:00.498Z,4.64
2022-12-11T21:04:34.946Z,4.62
2022-12-11T21:07:09.405Z,4.60
2022-12-11T21:09:42.802Z,4.59
2022-12-11T21:12:16.266Z,4.56
2022-12-11T21:14:49.069Z,4.55
2022-12-11T21:17:22.074Z,4.52
2022-12-11T21:19:54.881Z,4.51
2022-12-11T21:22:27.983Z,4.50
2022-12-11T21:25:00.981Z,4.50
2022-12-11T21:27:34.071Z,4.49
2022-12-11T21:30:08.211Z,4.47
2022-12-11T21:32:42.464Z,4.45
2022-12-11T21:35:15.212Z,4.45
2022-12-11T21:37:48.849Z,4.40
2022-12-11T21:40:22.692Z,4.39
2022-12-11T21:42:55.531Z,4.38
2022-12-11T21:45:59.835Z,4.37
2022-12-11T21:48:03.667Z,4.34
2022-12-11T21:50:38.972Z,4.35
2022-12-11T21:53:12.188Z,4.35
2022-12-11T21:55:45.716Z,4.36
2022-12-11T21:58:18.813Z,4.34
2022-12-11T22:00:51.711Z,4.29
2022-12-11T22:03:24.839Z,4.30
2022-12-11T22:05:57.794Z,4.30
2022-12-11T22:08:30.623Z,4.31
2022-12-11T22:11:03.623Z,4.31
2022-12-11T22:13:37.015Z,4.31
2022-12-11T22:16:10.440Z,4.30
2022-12-11T22:18:43.878Z,4.28
2022-12-11T22:21:17.873Z,4.26
2022-12-11T22:23:50.806Z,4.23
2022-12-11T22:26:27.499Z,4.22
2022-12-11T22:29:00.601Z,4.24
2022-12-11T22:31:33.723Z,4.26
2022-12-11T22:34:06.775Z,4.23
2022-12-11T22:36:39.992Z,4.23
2022-12-11T22:39:12.999Z,4.25
2022-12-11T22:41:45.931Z,4.27
2022-12-11T22:44:21.965Z,4.28
2022-12-11T22:46:54.907Z,4.29
2022-12-11T22:49:27.846Z,4.28
2022-12-11T22:52:01.618Z,4.26
2022-12-11T22:54:35.662Z,4.24
2022-12-11T22:57:08.807Z,4.24
2022-12-11T22:59:41.934Z,4.26
2022-12-11T23:02:15.739Z,4.26
2022-12-11T23:04:48.375Z,4.28
2022-12-11T23:07:21.271Z,4.28
2022-12-11T23:09:54.637Z,4.28
2022-12-11T23:12:28.818Z,4.26
2022-12-11T23:15:01.652Z,4.26
2022-12-11T23:17:35.110Z,4.28
2022-12-11T23:20:09.651Z,4.26
2022-12-11T23:22:42.648Z,4.25
2022-12-11T23:25:16.565Z,4.24
2022-12-11T23:27:50.529Z,4.22
2022-12-11T23:30:24.332Z,4.22
2022-12-11T23:32:57.463Z,4.24
2022-12-11T23:35:30.400Z,4.26
2022-12-11T23:38:03.547Z,4.27
2022-12-11T23:40:37.095Z,4.28
2022-12-11T23:43:09.769Z,4.29
2022-12-11T23:45:47.284Z,4.28
2022-12-11T23:48:21.460Z,4.27
2022-12-11T23:50:56.016Z,4.29
2022-12-11T23:53:29.812Z,4.29
2022-12-11T23:56:08.474Z,4.28
2022-12-11T23:58:41.872Z,4.29
